sensor_id;sensor_type;location;lat;lon;timestamp;P1;durP1;ratioP1;P2;durP2;ratioP2
39434;SDS011;66825;51.880;-0.518;2023-02-01T00:01:48;5.18;;;2.85;;
39434;SDS011;66825;51.880;-0.518;2023-02-01T00:04:13;5.57;;;2.92;;
39434;SDS011;66825;51.880;-0.518;2023-02-01T00:06:39;5.55;;;2.88;;
39434;SDS011;66825;51.880;-0.518;2023-02-01T00:09:04;7.60;;;3.03;;
39434;SDS011;66825;51.880;-0.518;2023-02-01T00:11:30;6.13;;;2.92;;
39434;SDS011;66825;51.880;-0.518;2023-02-01T00:13:56;6.15;;;3.03;;
39434;SDS011;66825;51.880;-0.518;2023-02-01T00:16:22;7.28;;;3.15;;
39434;SDS011;66825;51.880;-0.518;2023-02-01T00:18:51;5.75;;;2.78;;
39434;SDS011;66825;51.880;-0.518;2023-02-01T00:21:20;5.60;;;2.90;;
39434;SDS011;66825;51.880;-0.518;2023-02-01T00:23:46;6.07;;;2.90;;
39434;SDS011;66825;51.880;-0.518;2023-02-01T00:26:16;6.35;;;2.80;;
39434;SDS011;66825;51.880;-0.518;2023-02-01T00:28:44;5.32;;;2.70;;
39434;SDS011;66825;51.880;-0.518;2023-02-01T00:31:10;5.03;;;2.75;;
39434;SDS011;66825;51.880;-0.518;2023-02-01T00:33:36;6.18;;;2.70;;
39434;SDS011;66825;51.880;-0.518;2023-02-01T00:36:05;5.88;;;2.80;;
39434;SDS011;66825;51.880;-0.518;2023-02-01T00:41:06;6.10;;;3.10;;
39434;SDS011;66825;51.880;-0.518;2023-02-01T00:43:35;5.30;;;2.58;;
39434;SDS011;66825;51.880;-0.518;2023-02-01T00:46:01;5.88;;;2.80;;
39434;SDS011;66825;51.880;-0.518;2023-02-01T00:48:26;5.53;;;2.55;;
39434;SDS011;66825;51.880;-0.518;2023-02-01T00:50:52;5.93;;;2.60;;
39434;SDS011;66825;51.880;-0.518;2023-02-01T00:53:18;6.43;;;2.78;;
39434;SDS011;66825;51.880;-0.518;2023-02-01T00:55:44;5.95;;;2.63;;
39434;SDS011;66825;51.880;-0.518;2023-02-01T00:58:11;4.97;;;2.40;;
39434;SDS011;66825;51.880;-0.518;2023-02-01T01:00:36;4.43;;;2.28;;
39434;SDS011;66825;51.880;-0.518;2023-02-01T01:03:02;5.60;;;2.60;;
39434;SDS011;66825;51.880;-0.518;2023-02-01T01:05:27;5.00;;;2.47;;
39434;SDS011;66825;51.880;-0.518;2023-02-01T01:07:53;5.85;;;2.40;;
39434;SDS011;66825;51.880;-0.518;2023-02-01T01:10:19;5.53;;;2.65;;
39434;SDS011;66825;51.880;-0.518;2023-02-01T01:12:44;6.20;;;2.63;;
39434;SDS011;66825;51.880;-0.518;2023-02-01T01:15:10;5.55;;;2.78;;
39434;SDS011;66825;51.880;-0.518;2023-02-01T01:17:36;5.13;;;2.47;;
39434;SDS011;66825;51.880;-0.518;2023-02-01T01:20:02;4.93;;;2.38;;
39434;SDS011;66825;51.880;-0.518;2023-02-01T01:22:28;3.72;;;2.10;;
39434;SDS011;66825;51.880;-0.518;2023-02-01T01:24:54;4.45;;;2.33;;
39434;SDS011;66825;51.880;-0.518;2023-02-01T01:27:19;4.60;;;2.28;;
39434;SDS011;66825;51.880;-0.518;2023-02-01T01:29:49;4.80;;;2.33;;
39434;SDS011;66825;51.880;-0.518;2023-02-01T01:32:14;4.57;;;2.28;;
39434;SDS011;66825;51.880;-0.518;2023-02-01T01:34:40;4.10;;;2.08;;
39434;SDS011;66825;51.880;-0.518;2023-02-01T01:37:06;4.07;;;2.17;;
39434;SDS011;66825;51.880;-0.518;2023-02-01T01:39:31;5.05;;;2.30;;
39434;SDS011;66825;51.880;-0.518;2023-02-01T01:41:57;3.75;;;2.03;;
39434;SDS011;66825;51.880;-0.518;2023-02-01T01:47:22;3.92;;;2.13;;
39434;SDS011;66825;51.880;-0.518;2023-02-01T01:49:47;4.80;;;2.35;;
39434;SDS011;66825;51.880;-0.518;2023-02-01T01:52:13;4.75;;;2.35;;
39434;SDS011;66825;51.880;-0.518;2023-02-01T01:54:43;4.90;;;2.40;;
39434;SDS011;66825;51.880;-0.518;2023-02-01T01:57:17;3.40;;;1.92;;
39434;SDS011;66825;51.880;-0.518;2023-02-01T01:59:48;4.10;;;2.20;;
39434;SDS011;66825;51.880;-0.518;2023-02-01T02:02:19;3.47;;;2.13;;
39434;SDS011;66825;51.880;-0.518;2023-02-01T02:04:45;3.65;;;1.90;;
39434;SDS011;66825;51.880;-0.518;2023-02-01T02:07:14;5.00;;;2.20;;
39434;SDS011;66825;51.880;-0.518;2023-02-01T02:09:45;5.03;;;2.30;;
39434;SDS011;66825;51.880;-0.518;2023-02-01T02:12:11;4.05;;;1.85;;
39434;SDS011;66825;51.880;-0.518;2023-02-01T02:14:36;4.03;;;2.17;;
39434;SDS011;66825;51.880;-0.518;2023-02-01T02:42:39;3.92;;;2.05;;
39434;SDS011;66825;51.880;-0.518;2023-02-01T02:45:38;4.13;;;2.08;;
39434;SDS011;66825;51.880;-0.518;2023-02-01T02:51:15;4.03;;;1.90;;
39434;SDS011;66825;51.880;-0.518;2023-02-01T02:54:10;3.78;;;1.92;;
39434;SDS011;66825;51.880;-0.518;2023-02-01T02:56:59;4.03;;;1.90;;
39434;SDS011;66825;51.880;-0.518;2023-02-01T02:59:45;3.55;;;1.90;;
39434;SDS011;66825;51.880;-0.518;2023-02-01T03:02:31;3.30;;;1.92;;
39434;SDS011;66825;51.880;-0.518;2023-02-01T03:05:16;4.28;;;1.90;;
39434;SDS011;66825;51.880;-0.518;2023-02-01T03:10:44;3.63;;;1.80;;
39434;SDS011;66825;51.880;-0.518;2023-02-01T03:16:28;4.57;;;2.20;;
39434;SDS011;66825;51.880;-0.518;2023-02-01T03:19:03;4.00;;;2.00;;
39434;SDS011;66825;51.880;-0.518;2023-02-01T03:24:00;2.92;;;1.60;;
39434;SDS011;66825;51.880;-0.518;2023-02-01T03:26:30;3.22;;;1.60;;
39434;SDS011;66825;51.880;-0.518;2023-02-01T03:29:05;3.20;;;1.70;;
39434;SDS011;66825;51.880;-0.518;2023-02-01T03:31:37;4.22;;;1.90;;
39434;SDS011;66825;51.880;-0.518;2023-02-01T03:34:03;3.95;;;1.80;;
39434;SDS011;66825;51.880;-0.518;2023-02-01T03:36:35;5.28;;;1.80;;
39434;SDS011;66825;51.880;-0.518;2023-02-01T03:41:47;3.90;;;1.90;;
39434;SDS011;66825;51.880;-0.518;2023-02-01T03:47:02;3.33;;;1.85;;
39434;SDS011;66825;51.880;-0.518;2023-02-01T03:54:40;3.28;;;1.60;;
39434;SDS011;66825;51.880;-0.518;2023-02-01T03:57:07;3.47;;;1.63;;
39434;SDS011;66825;51.880;-0.518;2023-02-01T03:59:43;2.60;;;1.17;;
39434;SDS011;66825;51.880;-0.518;2023-02-01T04:02:10;3.20;;;1.60;;
39434;SDS011;66825;51.880;-0.518;2023-02-01T04:04:36;2.55;;;1.50;;
39434;SDS011;66825;51.880;-0.518;2023-02-01T04:07:02;3.15;;;1.80;;
39434;SDS011;66825;51.880;-0.518;2023-02-01T04:09:27;2.70;;;1.60;;
39434;SDS011;66825;51.880;-0.518;2023-02-01T04:11:53;3.20;;;1.80;;
39434;SDS011;66825;51.880;-0.518;2023-02-01T04:14:18;3.33;;;1.58;;
39434;SDS011;66825;51.880;-0.518;2023-02-01T04:16:44;3.25;;;1.60;;
39434;SDS011;66825;51.880;-0.518;2023-02-01T04:19:10;3.72;;;1.90;;
39434;SDS011;66825;51.880;-0.518;2023-02-01T04:21:35;3.55;;;1.83;;
39434;SDS011;66825;51.880;-0.518;2023-02-01T04:24:01;3.85;;;1.75;;
39434;SDS011;66825;51.880;-0.518;2023-02-01T04:26:26;3.22;;;1.42;;
39434;SDS011;66825;51.880;-0.518;2023-02-01T04:28:51;5.30;;;2.00;;
39434;SDS011;66825;51.880;-0.518;2023-02-01T04:31:18;3.30;;;1.70;;
39434;SDS011;66825;51.880;-0.518;2023-02-01T04:33:51;2.63;;;1.40;;
39434;SDS011;66825;51.880;-0.518;2023-02-01T04:36:18;3.50;;;1.77;;
39434;SDS011;66825;51.880;-0.518;2023-02-01T04:38:45;2.92;;;1.50;;
39434;SDS011;66825;51.880;-0.518;2023-02-01T04:41:12;2.80;;;1.40;;
39434;SDS011;66825;51.880;-0.518;2023-02-01T04:43:37;3.58;;;1.73;;
39434;SDS011;66825;51.880;-0.518;2023-02-01T04:46:03;2.40;;;1.35;;
39434;SDS011;66825;51.880;-0.518;2023-02-01T04:48:29;3.00;;;1.50;;
39434;SDS011;66825;51.880;-0.518;2023-02-01T04:50:55;3.35;;;1.73;;
39434;SDS011;66825;51.880;-0.518;2023-02-01T04:53:21;2.70;;;1.33;;
39434;SDS011;66825;51.880;-0.518;2023-02-01T04:55:47;3.70;;;1.58;;
39434;SDS011;66825;51.880;-0.518;2023-02-01T04:58:14;2.63;;;1.40;;
39434;SDS011;66825;51.880;-0.518;2023-02-01T05:00:40;3.72;;;1.50;;
39434;SDS011;66825;51.880;-0.518;2023-02-01T05:03:06;3.38;;;1.60;;
39434;SDS011;66825;51.880;-0.518;2023-02-01T05:05:31;2.30;;;1.30;;
39434;SDS011;66825;51.880;-0.518;2023-02-01T05:07:57;2.95;;;1.48;;
39434;SDS011;66825;51.880;-0.518;2023-02-01T05:10:23;3.42;;;1.50;;
39434;SDS011;66825;51.880;-0.518;2023-02-01T05:12:48;3.03;;;1.50;;
39434;SDS011;66825;51.880;-0.518;2023-02-01T05:15:32;4.03;;;1.70;;
39434;SDS011;66825;51.880;-0.518;2023-02-01T05:17:58;2.55;;;1.45;;
39434;SDS011;66825;51.880;-0.518;2023-02-01T05:20:24;2.83;;;1.50;;
39434;SDS011;66825;51.880;-0.518;2023-02-01T05:22:49;2.80;;;1.38;;
39434;SDS011;66825;51.880;-0.518;2023-02-01T05:25:15;3.85;;;1.40;;
39434;SDS011;66825;51.880;-0.518;2023-02-01T05:27:41;2.40;;;1.20;;
39434;SDS011;66825;51.880;-0.518;2023-02-01T05:30:07;2.85;;;1.30;;
39434;SDS011;66825;51.880;-0.518;2023-02-01T05:32:33;3.08;;;1.50;;
39434;SDS011;66825;51.880;-0.518;2023-02-01T05:34:59;2.22;;;1.30;;
39434;SDS011;66825;51.880;-0.518;2023-02-01T05:37:24;3.30;;;1.40;;
39434;SDS011;66825;51.880;-0.518;2023-02-01T05:39:50;2.95;;;1.40;;
39434;SDS011;66825;51.880;-0.518;2023-02-01T05:42:15;2.28;;;1.20;;
39434;SDS011;66825;51.880;-0.518;2023-02-01T05:44:41;2.33;;;1.20;;
39434;SDS011;66825;51.880;-0.518;2023-02-01T05:47:06;3.35;;;1.65;;
39434;SDS011;66825;51.880;-0.518;2023-02-01T05:49:32;2.20;;;1.27;;
39434;SDS011;66825;51.880;-0.518;2023-02-01T05:51:57;2.17;;;1.13;;
39434;SDS011;66825;51.880;-0.518;2023-02-01T05:54:26;3.35;;;1.30;;
39434;SDS011;66825;51.880;-0.518;2023-02-01T05:56:52;3.28;;;1.50;;
39434;SDS011;66825;51.880;-0.518;2023-02-01T05:59:17;2.92;;;1.38;;
39434;SDS011;66825;51.880;-0.518;2023-02-01T06:01:43;2.42;;;1.10;;
39434;SDS011;66825;51.880;-0.518;2023-02-01T06:04:08;3.05;;;1.35;;
39434;SDS011;66825;51.880;-0.518;2023-02-01T06:06:34;3.00;;;1.60;;
39434;SDS011;66825;51.880;-0.518;2023-02-01T06:09:00;2.47;;;1.40;;
39434;SDS011;66825;51.880;-0.518;2023-02-01T06:11:26;3.45;;;1.60;;
39434;SDS011;66825;51.880;-0.518;2023-02-01T06:13:53;2.30;;;1.10;;
39434;SDS011;66825;51.880;-0.518;2023-02-01T06:16:18;2.42;;;1.20;;
39434;SDS011;66825;51.880;-0.518;2023-02-01T06:18:44;2.58;;;1.30;;
39434;SDS011;66825;51.880;-0.518;2023-02-01T06:21:09;2.42;;;1.35;;
39434;SDS011;66825;51.880;-0.518;2023-02-01T06:23:35;2.72;;;1.30;;
39434;SDS011;66825;51.880;-0.518;2023-02-01T06:26:02;1.83;;;1.10;;
39434;SDS011;66825;51.880;-0.518;2023-02-01T06:28:29;2.60;;;1.33;;
39434;SDS011;66825;51.880;-0.518;2023-02-01T06:30:56;3.20;;;1.40;;
39434;SDS011;66825;51.880;-0.518;2023-02-01T06:33:23;2.35;;;1.20;;
39434;SDS011;66825;51.880;-0.518;2023-02-01T06:35:58;2.83;;;1.35;;
39434;SDS011;66825;51.880;-0.518;2023-02-01T06:38:24;2.40;;;1.20;;
39434;SDS011;66825;51.880;-0.518;2023-02-01T06:40:54;2.78;;;1.30;;
39434;SDS011;66825;51.880;-0.518;2023-02-01T06:43:22;2.65;;;1.40;;
39434;SDS011;66825;51.880;-0.518;2023-02-01T06:45:51;2.47;;;1.17;;
39434;SDS011;66825;51.880;-0.518;2023-02-01T06:48:17;2.67;;;1.33;;
39434;SDS011;66825;51.880;-0.518;2023-02-01T06:50:43;1.95;;;1.10;;
39434;SDS011;66825;51.880;-0.518;2023-02-01T06:53:09;2.05;;;1.20;;
39434;SDS011;66825;51.880;-0.518;2023-02-01T06:55:35;2.15;;;1.10;;
39434;SDS011;66825;51.880;-0.518;2023-02-01T06:58:01;2.55;;;1.30;;
39434;SDS011;66825;51.880;-0.518;2023-02-01T07:00:28;2.53;;;1.30;;
39434;SDS011;66825;51.880;-0.518;2023-02-01T07:02:54;2.45;;;1.33;;
39434;SDS011;66825;51.880;-0.518;2023-02-01T07:05:22;2.60;;;1.33;;
39434;SDS011;66825;51.880;-0.518;2023-02-01T07:07:48;1.60;;;0.90;;
39434;SDS011;66825;51.880;-0.518;2023-02-01T07:10:13;1.92;;;1.00;;
39434;SDS011;66825;51.880;-0.518;2023-02-01T07:12:39;2.40;;;1.30;;
39434;SDS011;66825;51.880;-0.518;2023-02-01T07:15:04;2.42;;;1.30;;
39434;SDS011;66825;51.880;-0.518;2023-02-01T07:17:30;2.83;;;1.38;;
39434;SDS011;66825;51.880;-0.518;2023-02-01T07:19:56;2.70;;;1.23;;
39434;SDS011;66825;51.880;-0.518;2023-02-01T07:22:25;2.08;;;1.10;;
39434;SDS011;66825;51.880;-0.518;2023-02-01T07:24:50;2.38;;;1.33;;
39434;SDS011;66825;51.880;-0.518;2023-02-01T07:27:16;2.22;;;1.20;;
39434;SDS011;66825;51.880;-0.518;2023-02-01T07:29:41;2.40;;;1.20;;
39434;SDS011;66825;51.880;-0.518;2023-02-01T07:32:07;2.22;;;1.17;;
39434;SDS011;66825;51.880;-0.518;2023-02-01T07:34:32;2.65;;;1.10;;
39434;SDS011;66825;51.880;-0.518;2023-02-01T07:36:58;1.92;;;1.00;;
39434;SDS011;66825;51.880;-0.518;2023-02-01T07:39:24;1.83;;;1.00;;
39434;SDS011;66825;51.880;-0.518;2023-02-01T07:41:50;2.50;;;1.10;;
39434;SDS011;66825;51.880;-0.518;2023-02-01T07:44:15;3.25;;;1.20;;
39434;SDS011;66825;51.880;-0.518;2023-02-01T07:46:44;2.92;;;1.50;;
39434;SDS011;66825;51.880;-0.518;2023-02-01T07:49:09;3.00;;;1.30;;
39434;SDS011;66825;51.880;-0.518;2023-02-01T07:51:35;3.05;;;1.42;;
39434;SDS011;66825;51.880;-0.518;2023-02-01T07:54:00;2.92;;;1.25;;
39434;SDS011;66825;51.880;-0.518;2023-02-01T07:56:26;2.78;;;1.38;;
39434;SDS011;66825;51.880;-0.518;2023-02-01T07:58:52;2.95;;;1.30;;
39434;SDS011;66825;51.880;-0.518;2023-02-01T08:01:21;2.40;;;1.20;;
39434;SDS011;66825;51.880;-0.518;2023-02-01T08:03:52;2.95;;;1.27;;
39434;SDS011;66825;51.880;-0.518;2023-02-01T08:06:20;1.95;;;1.13;;
39434;SDS011;66825;51.880;-0.518;2023-02-01T08:08:46;3.15;;;1.20;;
39434;SDS011;66825;51.880;-0.518;2023-02-01T08:11:13;2.80;;;1.55;;
39434;SDS011;66825;51.880;-0.518;2023-02-01T08:13:39;3.75;;;1.35;;
39434;SDS011;66825;51.880;-0.518;2023-02-01T08:16:06;2.17;;;1.15;;
39434;SDS011;66825;51.880;-0.518;2023-02-01T08:18:33;2.15;;;1.08;;
39434;SDS011;66825;51.880;-0.518;2023-02-01T08:21:03;2.75;;;1.23;;
39434;SDS011;66825;51.880;-0.518;2023-02-01T08:23:33;2.28;;;1.00;;
39434;SDS011;66825;51.880;-0.518;2023-02-01T08:28:32;2.38;;;1.20;;
39434;SDS011;66825;51.880;-0.518;2023-02-01T08:30:58;3.30;;;1.33;;
39434;SDS011;66825;51.880;-0.518;2023-02-01T08:33:23;2.38;;;1.13;;
39434;SDS011;66825;51.880;-0.518;2023-02-01T08:35:49;4.70;;;1.10;;
39434;SDS011;66825;51.880;-0.518;2023-02-01T08:38:14;2.55;;;1.35;;
39434;SDS011;66825;51.880;-0.518;2023-02-01T08:40:40;3.13;;;1.20;;
39434;SDS011;66825;51.880;-0.518;2023-02-01T08:43:06;2.95;;;1.00;;
39434;SDS011;66825;51.880;-0.518;2023-02-01T08:45:32;2.58;;;1.20;;
39434;SDS011;66825;51.880;-0.518;2023-02-01T08:47:59;2.75;;;1.40;;
39434;SDS011;66825;51.880;-0.518;2023-02-01T08:50:25;3.33;;;1.30;;
39434;SDS011;66825;51.880;-0.518;2023-02-01T08:52:51;4.15;;;1.40;;
39434;SDS011;66825;51.880;-0.518;2023-02-01T08:55:17;2.03;;;0.85;;
39434;SDS011;66825;51.880;-0.518;2023-02-01T08:57:43;2.75;;;0.95;;
39434;SDS011;66825;51.880;-0.518;2023-02-01T09:00:10;3.58;;;1.50;;
39434;SDS011;66825;51.880;-0.518;2023-02-01T09:02:38;2.30;;;1.00;;
39434;SDS011;66825;51.880;-0.518;2023-02-01T09:05:04;5.22;;;1.30;;
39434;SDS011;66825;51.880;-0.518;2023-02-01T09:07:30;4.07;;;1.50;;
39434;SDS011;66825;51.880;-0.518;2023-02-01T09:09:56;10.77;;;2.20;;
39434;SDS011;66825;51.880;-0.518;2023-02-01T09:12:26;11.73;;;2.38;;
39434;SDS011;66825;51.880;-0.518;2023-02-01T09:14:53;10.75;;;2.53;;
39434;SDS011;66825;51.880;-0.518;2023-02-01T09:17:18;11.38;;;2.50;;
39434;SDS011;66825;51.880;-0.518;2023-02-01T09:19:44;11.27;;;2.67;;
39434;SDS011;66825;51.880;-0.518;2023-02-01T09:22:09;12.45;;;2.67;;
39434;SDS011;66825;51.880;-0.518;2023-02-01T09:24:35;10.60;;;2.90;;
39434;SDS011;66825;51.880;-0.518;2023-02-01T09:27:01;10.13;;;2.70;;
39434;SDS011;66825;51.880;-0.518;2023-02-01T09:29:26;10.60;;;2.83;;
39434;SDS011;66825;51.880;-0.518;2023-02-01T09:31:52;14.93;;;3.10;;
39434;SDS011;66825;51.880;-0.518;2023-02-01T09:34:17;11.57;;;3.20;;
39434;SDS011;66825;51.880;-0.518;2023-02-01T09:36:42;12.27;;;3.10;;
39434;SDS011;66825;51.880;-0.518;2023-02-01T09:39:08;12.65;;;3.20;;
39434;SDS011;66825;51.880;-0.518;2023-02-01T09:41:47;9.10;;;2.60;;
39434;SDS011;66825;51.880;-0.518;2023-02-01T09:47:11;7.25;;;3.10;;
39434;SDS011;66825;51.880;-0.518;2023-02-01T09:49:39;10.75;;;3.40;;
39434;SDS011;66825;51.880;-0.518;2023-02-01T09:52:13;9.32;;;3.05;;
39434;SDS011;66825;51.880;-0.518;2023-02-01T09:54:42;12.32;;;3.80;;
39434;SDS011;66825;51.880;-0.518;2023-02-01T09:57:16;10.27;;;3.35;;
39434;SDS011;66825;51.880;-0.518;2023-02-01T09:59:50;11.20;;;3.70;;
39434;SDS011;66825;51.880;-0.518;2023-02-01T10:02:23;8.38;;;3.33;;
39434;SDS011;66825;51.880;-0.518;2023-02-01T10:04:52;12.45;;;3.88;;
39434;SDS011;66825;51.880;-0.518;2023-02-01T10:09:58;16.20;;;3.90;;
39434;SDS011;66825;51.880;-0.518;2023-02-01T10:12:40;16.73;;;4.00;;
39434;SDS011;66825;51.880;-0.518;2023-02-01T10:26:53;12.75;;;3.70;;
39434;SDS011;66825;51.880;-0.518;2023-02-01T10:29:26;12.80;;;4.15;;
39434;SDS011;66825;51.880;-0.518;2023-02-01T10:31:58;10.63;;;3.75;;
39434;SDS011;66825;51.880;-0.518;2023-02-01T10:34:27;12.00;;;4.13;;
39434;SDS011;66825;51.880;-0.518;2023-02-01T10:37:01;12.73;;;4.28;;
39434;SDS011;66825;51.880;-0.518;2023-02-01T10:39:36;19.13;;;4.95;;
39434;SDS011;66825;51.880;-0.518;2023-02-01T10:42:02;17.55;;;4.90;;
39434;SDS011;66825;51.880;-0.518;2023-02-01T10:44:28;14.45;;;4.60;;
39434;SDS011;66825;51.880;-0.518;2023-02-01T10:46:56;13.85;;;4.22;;
39434;SDS011;66825;51.880;-0.518;2023-02-01T10:49:36;13.70;;;4.25;;
39434;SDS011;66825;51.880;-0.518;2023-02-01T10:54:40;14.95;;;4.22;;
39434;SDS011;66825;51.880;-0.518;2023-02-01T10:57:08;13.13;;;4.50;;
39434;SDS011;66825;51.880;-0.518;2023-02-01T10:59:35;21.75;;;5.05;;
39434;SDS011;66825;51.880;-0.518;2023-02-01T11:04:45;16.00;;;4.13;;
39434;SDS011;66825;51.880;-0.518;2023-02-01T11:09:42;12.63;;;4.05;;
39434;SDS011;66825;51.880;-0.518;2023-02-01T11:12:38;17.08;;;4.55;;
39434;SDS011;66825;51.880;-0.518;2023-02-01T11:15:14;13.55;;;4.57;;
39434;SDS011;66825;51.880;-0.518;2023-02-01T11:17:45;10.80;;;4.05;;
39434;SDS011;66825;51.880;-0.518;2023-02-01T11:20:20;12.60;;;4.15;;
39434;SDS011;66825;51.880;-0.518;2023-02-01T11:22:59;11.57;;;3.42;;
39434;SDS011;66825;51.880;-0.518;2023-02-01T11:25:26;8.43;;;3.35;;
39434;SDS011;66825;51.880;-0.518;2023-02-01T11:27:53;15.07;;;4.30;;
39434;SDS011;66825;51.880;-0.518;2023-02-01T11:30:38;17.08;;;4.53;;
39434;SDS011;66825;51.880;-0.518;2023-02-01T11:33:12;8.75;;;3.22;;
39434;SDS011;66825;51.880;-0.518;2023-02-01T11:35:40;11.88;;;3.92;;
39434;SDS011;66825;51.880;-0.518;2023-02-01T11:38:12;8.65;;;3.05;;
39434;SDS011;66825;51.880;-0.518;2023-02-01T11:40:45;10.63;;;3.70;;
39434;SDS011;66825;51.880;-0.518;2023-02-01T11:43:15;8.13;;;3.10;;
39434;SDS011;66825;51.880;-0.518;2023-02-01T11:45:56;8.48;;;3.33;;
39434;SDS011;66825;51.880;-0.518;2023-02-01T11:48:39;10.98;;;3.15;;
39434;SDS011;66825;51.880;-0.518;2023-02-01T11:56:45;8.82;;;3.05;;
39434;SDS011;66825;51.880;-0.518;2023-02-01T12:10:26;9.40;;;2.90;;
39434;SDS011;66825;51.880;-0.518;2023-02-01T12:15:59;7.70;;;2.60;;
39434;SDS011;66825;51.880;-0.518;2023-02-01T12:21:54;11.70;;;4.05;;
39434;SDS011;66825;51.880;-0.518;2023-02-01T12:24:36;11.88;;;3.50;;
39434;SDS011;66825;51.880;-0.518;2023-02-01T12:27:18;10.68;;;3.65;;
39434;SDS011;66825;51.880;-0.518;2023-02-01T12:32:30;10.18;;;3.80;;
39434;SDS011;66825;51.880;-0.518;2023-02-01T12:38:42;10.80;;;3.65;;
39434;SDS011;66825;51.880;-0.518;2023-02-01T12:40:45;9.48;;;3.40;;
39434;SDS011;66825;51.880;-0.518;2023-02-01T12:46:03;10.23;;;3.83;;
39434;SDS011;66825;51.880;-0.518;2023-02-01T12:48:54;9.23;;;3.05;;
39434;SDS011;66825;51.880;-0.518;2023-02-01T12:51:28;10.80;;;3.53;;
39434;SDS011;66825;51.880;-0.518;2023-02-01T12:56:41;11.57;;;3.83;;
39434;SDS011;66825;51.880;-0.518;2023-02-01T13:04:29;12.02;;;3.80;;
39434;SDS011;66825;51.880;-0.518;2023-02-01T13:07:06;12.00;;;3.80;;
39434;SDS011;66825;51.880;-0.518;2023-02-01T13:09:47;10.27;;;3.35;;
39434;SDS011;66825;51.880;-0.518;2023-02-01T13:12:19;10.40;;;3.60;;
39434;SDS011;66825;51.880;-0.518;2023-02-01T13:17:45;10.32;;;3.30;;
39434;SDS011;66825;51.880;-0.518;2023-02-01T13:23:01;8.63;;;3.33;;
39434;SDS011;66825;51.880;-0.518;2023-02-01T13:26:03;8.57;;;3.15;;
39434;SDS011;66825;51.880;-0.518;2023-02-01T13:39:34;6.68;;;2.80;;
39434;SDS011;66825;51.880;-0.518;2023-02-01T13:42:30;7.93;;;2.70;;
39434;SDS011;66825;51.880;-0.518;2023-02-01T13:45:00;9.98;;;3.03;;
39434;SDS011;66825;51.880;-0.518;2023-02-01T13:47:31;6.32;;;3.03;;
39434;SDS011;66825;51.880;-0.518;2023-02-01T13:50:03;7.45;;;2.88;;
39434;SDS011;66825;51.880;-0.518;2023-02-01T13:55:16;5.80;;;2.70;;
39434;SDS011;66825;51.880;-0.518;2023-02-01T13:57:52;8.90;;;2.80;;
39434;SDS011;66825;51.880;-0.518;2023-02-01T14:26:17;5.70;;;2.38;;
39434;SDS011;66825;51.880;-0.518;2023-02-01T14:32:03;10.30;;;3.25;;
39434;SDS011;66825;51.880;-0.518;2023-02-01T14:47:45;7.38;;;2.08;;
39434;SDS011;66825;51.880;-0.518;2023-02-01T14:50:29;6.35;;;2.13;;
39434;SDS011;66825;51.880;-0.518;2023-02-01T14:55:35;9.50;;;2.53;;
39434;SDS011;66825;51.880;-0.518;2023-02-01T14:58:05;9.25;;;3.28;;
39434;SDS011;66825;51.880;-0.518;2023-02-01T15:00:46;11.50;;;3.30;;
39434;SDS011;66825;51.880;-0.518;2023-02-01T15:03:22;12.25;;;3.53;;
39434;SDS011;66825;51.880;-0.518;2023-02-01T15:05:57;9.43;;;3.00;;
39434;SDS011;66825;51.880;-0.518;2023-02-01T15:08:30;13.77;;;3.53;;
39434;SDS011;66825;51.880;-0.518;2023-02-01T15:13:27;9.82;;;3.40;;
39434;SDS011;66825;51.880;-0.518;2023-02-01T15:16:10;10.07;;;3.05;;
39434;SDS011;66825;51.880;-0.518;2023-02-01T15:18:38;29.02;;;5.25;;
39434;SDS011;66825;51.880;-0.518;2023-02-01T15:21:05;23.38;;;4.53;;
39434;SDS011;66825;51.880;-0.518;2023-02-01T15:23:39;24.27;;;4.82;;
39434;SDS011;66825;51.880;-0.518;2023-02-01T15:26:05;16.30;;;4.05;;
39434;SDS011;66825;51.880;-0.518;2023-02-01T15:28:30;23.85;;;5.00;;
39434;SDS011;66825;51.880;-0.518;2023-02-01T15:33:21;29.58;;;5.50;;
39434;SDS011;66825;51.880;-0.518;2023-02-01T15:40:59;12.07;;;3.70;;
39434;SDS011;66825;51.880;-0.518;2023-02-01T15:43:28;16.75;;;4.50;;
39434;SDS011;66825;51.880;-0.518;2023-02-01T15:46:01;26.13;;;6.57;;
39434;SDS011;66825;51.880;-0.518;2023-02-01T15:48:40;13.48;;;3.22;;
39434;SDS011;66825;51.880;-0.518;2023-02-01T15:51:12;10.98;;;3.47;;
39434;SDS011;66825;51.880;-0.518;2023-02-01T15:53:43;12.40;;;3.92;;
39434;SDS011;66825;51.880;-0.518;2023-02-01T15:56:11;17.40;;;4.03;;
39434;SDS011;66825;51.880;-0.518;2023-02-01T15:58:37;16.25;;;3.85;;
39434;SDS011;66825;51.880;-0.518;2023-02-01T16:01:10;18.63;;;4.22;;
39434;SDS011;66825;51.880;-0.518;2023-02-01T16:06:28;15.48;;;3.42;;
39434;SDS011;66825;51.880;-0.518;2023-02-01T16:11:40;9.57;;;3.30;;
39434;SDS011;66825;51.880;-0.518;2023-02-01T16:14:11;14.93;;;3.47;;
39434;SDS011;66825;51.880;-0.518;2023-02-01T16:16:37;11.70;;;3.72;;
39434;SDS011;66825;51.880;-0.518;2023-02-01T16:19:02;12.93;;;3.17;;
39434;SDS011;66825;51.880;-0.518;2023-02-01T16:21:28;14.63;;;3.38;;
39434;SDS011;66825;51.880;-0.518;2023-02-01T16:23:53;15.80;;;3.85;;
39434;SDS011;66825;51.880;-0.518;2023-02-01T16:26:19;13.80;;;3.80;;
39434;SDS011;66825;51.880;-0.518;2023-02-01T16:28:45;12.48;;;4.05;;
39434;SDS011;66825;51.880;-0.518;2023-02-01T16:31:11;11.30;;;3.40;;
39434;SDS011;66825;51.880;-0.518;2023-02-01T16:33:46;9.27;;;3.08;;
39434;SDS011;66825;51.880;-0.518;2023-02-01T16:36:12;12.52;;;3.47;;
39434;SDS011;66825;51.880;-0.518;2023-02-01T16:38:38;14.30;;;4.03;;
39434;SDS011;66825;51.880;-0.518;2023-02-01T16:41:04;12.80;;;3.40;;
39434;SDS011;66825;51.880;-0.518;2023-02-01T16:43:30;11.70;;;3.78;;
39434;SDS011;66825;51.880;-0.518;2023-02-01T16:45:58;10.35;;;3.17;;
39434;SDS011;66825;51.880;-0.518;2023-02-01T16:48:30;10.85;;;3.03;;
39434;SDS011;66825;51.880;-0.518;2023-02-01T16:51:01;8.63;;;3.20;;
39434;SDS011;66825;51.880;-0.518;2023-02-01T16:53:32;9.50;;;3.20;;
39434;SDS011;66825;51.880;-0.518;2023-02-01T16:55:58;12.98;;;2.97;;
39434;SDS011;66825;51.880;-0.518;2023-02-01T16:58:24;10.02;;;3.13;;
39434;SDS011;66825;51.880;-0.518;2023-02-01T17:00:50;9.52;;;2.85;;
39434;SDS011;66825;51.880;-0.518;2023-02-01T17:03:17;7.50;;;2.58;;
39434;SDS011;66825;51.880;-0.518;2023-02-01T17:05:47;8.13;;;2.75;;
39434;SDS011;66825;51.880;-0.518;2023-02-01T17:08:17;7.95;;;2.40;;
39434;SDS011;66825;51.880;-0.518;2023-02-01T17:10:56;7.22;;;2.55;;
39434;SDS011;66825;51.880;-0.518;2023-02-01T17:13:21;8.80;;;2.60;;
39434;SDS011;66825;51.880;-0.518;2023-02-01T17:15:56;7.38;;;2.53;;
39434;SDS011;66825;51.880;-0.518;2023-02-01T17:18:24;6.72;;;2.38;;
39434;SDS011;66825;51.880;-0.518;2023-02-01T17:20:56;6.05;;;2.20;;
39434;SDS011;66825;51.880;-0.518;2023-02-01T17:23:22;6.50;;;2.30;;
39434;SDS011;66825;51.880;-0.518;2023-02-01T17:25:47;8.45;;;2.28;;
39434;SDS011;66825;51.880;-0.518;2023-02-01T17:28:13;8.30;;;2.03;;
39434;SDS011;66825;51.880;-0.518;2023-02-01T17:30:38;7.13;;;2.22;;
39434;SDS011;66825;51.880;-0.518;2023-02-01T17:33:07;8.68;;;2.22;;
39434;SDS011;66825;51.880;-0.518;2023-02-01T17:35:53;5.22;;;2.15;;
39434;SDS011;66825;51.880;-0.518;2023-02-01T17:38:20;10.10;;;2.50;;
39434;SDS011;66825;51.880;-0.518;2023-02-01T17:40:46;6.82;;;2.47;;
39434;SDS011;66825;51.880;-0.518;2023-02-01T17:43:20;6.15;;;2.00;;
39434;SDS011;66825;51.880;-0.518;2023-02-01T17:46:10;7.38;;;2.58;;
39434;SDS011;66825;51.880;-0.518;2023-02-01T17:48:36;6.60;;;2.17;;
39434;SDS011;66825;51.880;-0.518;2023-02-01T17:51:02;6.43;;;2.10;;
39434;SDS011;66825;51.880;-0.518;2023-02-01T17:53:28;5.88;;;2.20;;
39434;SDS011;66825;51.880;-0.518;2023-02-01T17:55:54;6.72;;;2.13;;
39434;SDS011;66825;51.880;-0.518;2023-02-01T17:58:22;5.78;;;1.85;;
39434;SDS011;66825;51.880;-0.518;2023-02-01T18:00:48;5.70;;;1.90;;
39434;SDS011;66825;51.880;-0.518;2023-02-01T18:03:21;4.90;;;1.95;;